Time;durP1;ratioP1;P1;durP2;ratioP2;P2;SDS_P1;SDS_P2;PMS_P1;PMS_P2;Temp;Humidity;BMP_temperature;BMP_pressure;BME280_temperature;BME280_humidity;BME280_pressure;Samples;Min_cycle;Max_cycle;Signal;HPM_P1;HPM_P2
2021/03/16 00:00:41;;;;;;;44.17;7.05;;;6.50;99.90;;;;;;5087653;28;20043;-92
2021/03/16 00:03:06;;;;;;;34.88;4.38;;;6.50;99.90;;;;;;5070265;28;20082;-91
2021/03/16 00:05:32;;;;;;;38.47;6.57;;;6.50;99.90;;;;;;5086679;28;20075;-90
2021/03/16 00:07:58;;;;;;;41.78;6.00;;;6.50;99.90;;;;;;5086937;28;20039;-91
2021/03/16 00:10:24;;;;;;;34.30;5.43;;;6.50;99.90;;;;;;5089954;28;20093;-90
2021/03/16 00:12:49;;;;;;;36.88;6.80;;;6.50;99.90;;;;;;5078644;28;20138;-92
2021/03/16 00:15:15;;;;;;;37.40;6.03;;;6.50;99.90;;;;;;5076558;28;20515;-91
2021/03/16 00:17:42;;;;;;;36.60;5.72;;;6.50;99.90;;;;;;5072206;28;20039;-90
2021/03/16 00:20:08;;;;;;;35.53;5.47;;;6.50;99.90;;;;;;5088262;28;20039;-92
2021/03/16 00:22:34;;;;;;;56.92;6.93;;;6.50;99.90;;;;;;5101321;28;20337;-92
2021/03/16 00:25:00;;;;;;;44.85;5.43;;;6.50;99.90;;;;;;5099271;28;20058;-92
2021/03/16 00:27:26;;;;;;;47.17;6.05;;;6.50;99.90;;;;;;5097395;28;20158;-92
2021/03/16 00:29:52;;;;;;;36.80;6.00;;;6.50;99.90;;;;;;5088076;28;20071;-90
2021/03/16 00:32:17;;;;;;;31.52;4.88;;;6.50;99.90;;;;;;5100746;28;20035;-91
2021/03/16 00:34:43;;;;;;;35.63;6.32;;;6.40;99.90;;;;;;5110181;28;20040;-90
2021/03/16 00:37:09;;;;;;;35.85;4.85;;;6.50;99.90;;;;;;5093376;28;20058;-90
2021/03/16 00:39:35;;;;;;;50.15;7.07;;;6.40;99.90;;;;;;5111124;28;20044;-90
2021/03/16 00:42:00;;;;;;;35.28;4.07;;;6.50;99.90;;;;;;5099932;28;20039;-91
2021/03/16 00:44:26;;;;;;;37.47;4.82;;;6.50;99.90;;;;;;5088898;27;20103;-91
2021/03/16 00:46:52;;;;;;;35.58;5.85;;;6.50;99.90;;;;;;5110843;28;20039;-92
2021/03/16 00:49:18;;;;;;;38.25;4.70;;;6.60;99.90;;;;;;5121480;28;20032;-92
2021/03/16 00:51:44;;;;;;;38.25;5.82;;;6.60;99.90;;;;;;5118418;28;20073;-91
2021/03/16 00:54:09;;;;;;;34.28;5.80;;;6.60;99.90;;;;;;5085452;28;20039;-90
2021/03/16 00:56:35;;;;;;;34.35;6.53;;;6.60;99.90;;;;;;5073952;28;20040;-91
2021/03/16 00:59:01;;;;;;;36.72;4.70;;;6.50;99.90;;;;;;5090044;28;20046;-93
2021/03/16 01:01:26;;;;;;;34.63;4.97;;;6.50;99.90;;;;;;5089304;28;20429;-93
2021/03/16 01:03:52;;;;;;;44.13;5.30;;;6.50;99.90;;;;;;5089454;28;20126;-91
2021/03/16 01:06:18;;;;;;;32.90;4.30;;;6.50;99.90;;;;;;5088975;28;20040;-92
2021/03/16 01:08:45;;;;;;;33.85;4.63;;;6.50;99.90;;;;;;5090075;28;20385;-90
2021/03/16 01:11:12;;;;;;;45.35;5.47;;;6.50;99.90;;;;;;5089201;28;20067;-90
2021/03/16 01:13:38;;;;;;;31.95;5.85;;;6.60;99.90;;;;;;5071711;28;20079;-91
2021/03/16 01:16:04;;;;;;;36.53;5.15;;;6.40;99.90;;;;;;5068487;28;20071;-92
2021/03/16 01:18:31;;;;;;;29.80;4.28;;;6.50;99.90;;;;;;5053361;28;20052;-92
2021/03/16 01:20:57;;;;;;;29.92;5.13;;;6.50;99.90;;;;;;5068821;28;20040;-91
2021/03/16 01:23:23;;;;;;;28.38;4.40;;;6.50;99.90;;;;;;5051824;28;20051;-89
2021/03/16 01:25:49;;;;;;;30.42;4.07;;;6.40;99.90;;;;;;5068460;28;20452;-90
2021/03/16 01:28:16;;;;;;;37.38;5.85;;;6.40;99.90;;;;;;5052256;28;20048;-92
2021/03/16 01:30:42;;;;;;;38.00;5.22;;;6.40;99.90;;;;;;5050504;28;20043;-92
2021/03/16 01:33:07;;;;;;;36.85;4.93;;;6.40;99.90;;;;;;5068473;28;20081;-91
2021/03/16 01:35:33;;;;;;;43.05;5.13;;;6.40;99.90;;;;;;5084984;28;20036;-91
2021/03/16 01:37:59;;;;;;;33.60;4.10;;;6.40;99.90;;;;;;5052210;28;20051;-91
2021/03/16 01:40:31;;;;;;;40.50;6.43;;;6.40;99.90;;;;;;5067868;28;20112;-92
2021/03/16 01:43:16;;;;;;;33.17;6.07;;;6.40;99.90;;;;;;5072762;28;20048;-91
2021/03/16 01:45:43;;;;;;;31.25;6.10;;;6.30;99.90;;;;;;5074187;28;20036;-90
2021/03/16 01:48:11;;;;;;;32.25;4.95;;;6.30;99.90;;;;;;5088289;28;20036;-91
2021/03/16 01:50:38;;;;;;;26.65;4.05;;;6.30;99.90;;;;;;5069834;28;20028;-91
2021/03/16 01:53:05;;;;;;;32.10;4.20;;;6.30;99.90;;;;;;5069628;28;20040;-91
2021/03/16 01:55:31;;;;;;;33.20;4.43;;;6.30;99.90;;;;;;5075580;28;20036;-91
2021/03/16 01:57:58;;;;;;;26.45;3.17;;;6.30;99.90;;;;;;5078064;28;20250;-91
2021/03/16 02:00:26;;;;;;;25.63;3.95;;;6.30;99.90;;;;;;5070712;28;20040;-91
2021/03/16 02:02:52;;;;;;;28.98;4.15;;;6.40;99.90;;;;;;5075936;28;20044;-90
2021/03/16 02:05:18;;;;;;;28.08;3.35;;;6.30;99.90;;;;;;5067998;28;20140;-90
2021/03/16 02:07:51;;;;;;;22.50;4.07;;;6.30;99.90;;;;;;5074975;28;20040;-90
2021/03/16 02:10:27;;;;;;;23.60;3.92;;;6.40;99.90;;;;;;5058547;28;20610;-90
2021/03/16 02:12:57;;;;;;;30.33;4.35;;;6.30;99.90;;;;;;5099729;28;20052;-91
2021/03/16 02:15:29;;;;;;;29.15;4.55;;;6.30;99.90;;;;;;5087532;28;20063;-91
2021/03/16 02:18:01;;;;;;;27.83;4.57;;;6.40;99.90;;;;;;5070532;28;20075;-91
2021/03/16 02:20:53;;;;;;;29.58;4.07;;;6.40;99.90;;;;;;5105352;28;20053;-90
2021/03/16 02:23:26;;;;;;;36.63;5.22;;;6.40;99.90;;;;;;5092129;28;20135;-90
2021/03/16 02:26:13;;;;;;;28.10;4.40;;;6.30;99.90;;;;;;5106174;28;20226;-91
2021/03/16 02:29:00;;;;;;;27.10;4.03;;;6.30;99.90;;;;;;5105820;28;20077;-92
2021/03/16 02:31:27;;;;;;;36.28;4.22;;;6.30;99.90;;;;;;5048956;28;20528;-90
2021/03/16 02:33:55;;;;;;;34.65;3.60;;;6.30;99.90;;;;;;5068269;28;20067;-91
2021/03/16 02:36:22;;;;;;;31.77;4.55;;;6.30;99.90;;;;;;5085966;28;20039;-91
2021/03/16 02:38:51;;;;;;;26.88;4.60;;;6.20;99.90;;;;;;5096601;28;20036;-91
2021/03/16 02:41:18;;;;;;;28.08;3.72;;;6.10;99.90;;;;;;5112852;28;20040;-91
2021/03/16 02:43:44;;;;;;;27.17;3.55;;;6.10;99.90;;;;;;5107834;28;20040;-92
2021/03/16 02:46:11;;;;;;;25.95;3.60;;;6.00;99.90;;;;;;5069229;28;20097;-91
2021/03/16 02:48:38;;;;;;;30.60;3.75;;;6.00;99.90;;;;;;5087427;28;20126;-90
2021/03/16 02:51:06;;;;;;;25.98;3.15;;;6.00;99.90;;;;;;5087079;28;20043;-92
2021/03/16 02:53:33;;;;;;;34.55;4.43;;;5.90;99.90;;;;;;5089034;28;20114;-90
2021/03/16 02:56:00;;;;;;;31.55;3.83;;;5.90;99.90;;;;;;5085953;28;20514;-91
2021/03/16 02:58:28;;;;;;;25.63;4.15;;;5.90;99.90;;;;;;5086803;28;20055;-91
2021/03/16 03:00:54;;;;;;;34.40;4.22;;;5.80;99.90;;;;;;5086090;28;20043;-91
2021/03/16 03:03:23;;;;;;;43.20;5.20;;;5.80;99.90;;;;;;5087558;28;20103;-92
2021/03/16 03:05:50;;;;;;;24.20;3.90;;;5.70;99.90;;;;;;5086370;28;20031;-92
2021/03/16 03:08:19;;;;;;;22.05;4.40;;;5.70;99.90;;;;;;5086781;28;20043;-92
2021/03/16 03:10:45;;;;;;;26.65;4.22;;;5.70;99.90;;;;;;5086354;28;20027;-89
2021/03/16 03:13:11;;;;;;;30.20;3.67;;;5.70;99.90;;;;;;5090934;28;20103;-91
2021/03/16 03:15:36;;;;;;;39.92;4.82;;;5.70;99.90;;;;;;5085418;28;20136;-90
2021/03/16 03:18:02;;;;;;;30.30;3.38;;;5.70;99.90;;;;;;5087295;28;20412;-92
2021/03/16 03:20:28;;;;;;;34.08;4.30;;;5.70;99.90;;;;;;5105282;28;20036;-92
2021/03/16 03:23:24;;;;;;;29.88;4.72;;;5.80;99.90;;;;;;5087035;28;20051;-92
2021/03/16 03:25:54;;;;;;;35.95;5.07;;;5.70;99.90;;;;;;5109090;28;20039;-90
2021/03/16 03:28:29;;;;;;;32.00;4.75;;;5.90;99.90;;;;;;5094425;28;20044;-91
2021/03/16 03:31:07;;;;;;;38.15;4.10;;;5.90;99.90;;;;;;5098334;28;20044;-91
2021/03/16 03:33:37;;;;;;;30.13;4.15;;;5.90;99.90;;;;;;5088984;28;20050;-89
2021/03/16 03:36:04;;;;;;;35.45;3.92;;;6.00;99.90;;;;;;5072160;28;20051;-89
2021/03/16 03:38:31;;;;;;;36.78;4.18;;;5.90;99.90;;;;;;5087011;28;20039;-91
2021/03/16 03:40:59;;;;;;;26.15;5.90;;;5.90;99.90;;;;;;5071388;28;20071;-91
2021/03/16 03:43:26;;;;;;;38.92;4.53;;;5.90;99.90;;;;;;5086228;28;20036;-91
2021/03/16 03:45:54;;;;;;;37.00;4.55;;;5.90;99.90;;;;;;5092252;28;20334;-91
2021/03/16 03:48:23;;;;;;;25.90;4.18;;;5.80;99.90;;;;;;5086049;28;20464;-91
2021/03/16 03:50:53;;;;;;;34.97;4.82;;;5.80;99.90;;;;;;5093379;28;20084;-89
2021/03/16 03:53:19;;;;;;;41.10;5.80;;;5.80;99.90;;;;;;5085996;28;20047;-92
2021/03/16 03:55:47;;;;;;;30.40;3.30;;;5.70;99.90;;;;;;5095015;28;20078;-91
2021/03/16 03:58:14;;;;;;;34.65;3.90;;;5.70;99.90;;;;;;5103499;28;20031;-91
2021/03/16 04:00:40;;;;;;;43.08;4.93;;;5.70;99.90;;;;;;5091688;28;20027;-91
2021/03/16 04:03:07;;;;;;;29.23;4.05;;;5.70;99.90;;;;;;5071773;28;20086;-91
2021/03/16 05:41:23;;;;;;;37.28;3.83;;;5.80;99.90;;;;;;4061558;28;20059;-90
2021/03/16 05:43:50;;;;;;;21.40;3.05;;;5.80;99.90;;;;;;5086883;28;20426;-90
2021/03/16 05:46:18;;;;;;;25.65;4.15;;;5.70;99.90;;;;;;5067987;28;20059;-91
2021/03/16 05:48:50;;;;;;;29.48;3.65;;;5.70;99.90;;;;;;5085863;28;20484;-91
2021/03/16 05:51:16;;;;;;;23.20;3.55;;;5.70;99.90;;;;;;5087880;28;20317;-92
2021/03/16 05:53:49;;;;;;;27.27;4.45;;;5.70;99.90;;;;;;5088724;28;20059;-92
2021/03/16 05:56:15;;;;;;;20.17;2.83;;;5.60;99.90;;;;;;5088450;28;20035;-92
2021/03/16 05:58:42;;;;;;;25.88;4.55;;;5.70;99.90;;;;;;5087735;28;20300;-91
2021/03/16 06:01:10;;;;;;;31.33;3.63;;;5.70;99.90;;;;;;5106501;28;20044;-91
2021/03/16 06:03:36;;;;;;;21.92;3.88;;;5.60;99.90;;;;;;5088377;28;20389;-90
2021/03/16 06:06:02;;;;;;;30.85;3.40;;;5.70;99.90;;;;;;5088063;28;20036;-91
2021/03/16 06:08:31;;;;;;;30.83;3.78;;;5.70;99.90;;;;;;5089017;28;20058;-91
2021/03/16 06:10:57;;;;;;;28.33;3.22;;;5.70;99.90;;;;;;5104672;28;20058;-91
2021/03/16 06:13:25;;;;;;;22.92;2.83;;;5.70;99.90;;;;;;5126814;28;20084;-92
2021/03/16 06:15:52;;;;;;;19.75;3.55;;;5.70;99.90;;;;;;5115998;28;20091;-92
2021/03/16 06:18:28;;;;;;;25.95;4.20;;;5.70;99.90;;;;;;5115566;28;20122;-90
2021/03/16 06:20:58;;;;;;;22.05;2.63;;;5.80;99.90;;;;;;5081929;28;20078;-91
2021/03/16 06:23:30;;;;;;;21.67;3.03;;;5.90;99.90;;;;;;5095211;28;20059;-90
2021/03/16 06:25:56;;;;;;;29.85;4.32;;;5.80;99.90;;;;;;5078895;28;20564;-92
2021/03/16 06:28:30;;;;;;;26.58;3.78;;;5.80;99.90;;;;;;5096842;28;20063;-91
2021/03/16 06:30:55;;;;;;;25.75;3.05;;;5.90;99.90;;;;;;5092258;28;20043;-90
2021/03/16 06:33:24;;;;;;;20.67;2.63;;;5.90;99.90;;;;;;5090726;28;20446;-91
2021/03/16 06:36:08;;;;;;;25.88;3.58;;;6.10;99.90;;;;;;5087901;28;20027;-90
2021/03/16 06:38:37;;;;;;;24.67;2.80;;;6.10;99.90;;;;;;5090592;28;20543;-91
2021/03/16 06:41:15;;;;;;;30.75;4.65;;;6.20;99.90;;;;;;5087867;28;20381;-91
2021/03/16 06:43:52;;;;;;;22.15;3.15;;;6.20;99.90;;;;;;5086607;28;20434;-93
2021/03/16 06:46:38;;;;;;;24.90;3.83;;;6.30;99.90;;;;;;5070605;28;20135;-90
2021/03/16 06:49:15;;;;;;;19.05;3.45;;;6.50;99.90;;;;;;5070603;28;20056;-91
2021/03/16 06:51:40;;;;;;;20.95;4.20;;;6.50;99.90;;;;;;5086430;28;20523;-91
2021/03/16 06:54:11;;;;;;;26.17;3.08;;;6.60;99.90;;;;;;5104650;28;20705;-92
2021/03/16 06:56:37;;;;;;;36.05;4.60;;;6.70;99.90;;;;;;5086960;28;20040;-92
2021/03/16 06:59:06;;;;;;;35.20;4.15;;;6.80;99.90;;;;;;5088793;28;20385;-92
2021/03/16 07:01:33;;;;;;;30.55;4.18;;;6.80;99.90;;;;;;5086699;28;20040;-91
2021/03/16 07:04:19;;;;;;;25.38;2.95;;;6.90;99.90;;;;;;5086894;28;20040;-91
2021/03/16 07:06:49;;;;;;;21.95;3.42;;;6.80;99.90;;;;;;5105263;28;20039;-92
2021/03/16 07:09:15;;;;;;;20.55;2.97;;;6.90;99.90;;;;;;5085998;28;20047;-92
2021/03/16 07:11:53;;;;;;;27.33;3.50;;;7.10;99.90;;;;;;5076940;28;20131;-93
2021/03/16 07:14:22;;;;;;;24.02;3.25;;;7.10;99.90;;;;;;5078562;27;20090;-91
2021/03/16 07:16:49;;;;;;;25.55;3.80;;;7.30;99.90;;;;;;5101858;27;20074;-91
2021/03/16 07:19:17;;;;;;;23.50;3.85;;;7.30;99.90;;;;;;5083380;28;20104;-91
2021/03/16 07:21:51;;;;;;;26.50;3.53;;;7.30;99.90;;;;;;5084435;28;20164;-91
2021/03/16 07:24:30;;;;;;;23.35;3.40;;;7.20;99.90;;;;;;5084272;28;20089;-92
2021/03/16 07:26:57;;;;;;;22.15;3.28;;;7.30;99.90;;;;;;5088013;28;20039;-84
2021/03/16 07:29:24;;;;;;;24.63;4.32;;;7.40;99.90;;;;;;5089582;28;20038;-82
2021/03/16 07:31:50;;;;;;;23.15;2.80;;;7.30;99.90;;;;;;5107945;28;20047;-83
2021/03/16 07:34:19;;;;;;;18.88;3.38;;;7.80;99.90;;;;;;5102539;28;20493;-84
2021/03/16 07:36:49;;;;;;;31.85;5.63;;;7.90;99.90;;;;;;5092613;28;20036;-83
2021/03/16 07:39:20;;;;;;;21.20;3.50;;;8.30;99.90;;;;;;5101721;28;20039;-85
2021/03/16 07:41:47;;;;;;;31.02;4.57;;;8.20;99.90;;;;;;5100409;28;20094;-83
2021/03/16 07:44:15;;;;;;;32.60;5.32;;;8.00;99.90;;;;;;5098116;28;20426;-82
2021/03/16 07:46:59;;;;;;;22.23;3.95;;;8.10;99.90;;;;;;5087956;28;20088;-84
2021/03/16 07:49:29;;;;;;;19.98;3.30;;;8.30;99.90;;;;;;5090155;28;20398;-82
2021/03/16 07:51:54;;;;;;;25.98;3.75;;;7.90;99.90;;;;;;5102908;28;20043;-82
2021/03/16 07:54:21;;;;;;;25.90;4.35;;;8.00;99.90;;;;;;5097690;28;20052;-82
2021/03/16 07:56:59;;;;;;;23.52;3.65;;;7.90;99.90;;;;;;5084529;28;20043;-82
2021/03/16 07:59:32;;;;;;;25.20;3.63;;;8.00;99.90;;;;;;5106328;28;20046;-82
2021/03/16 08:01:58;;;;;;;25.73;3.95;;;7.90;99.90;;;;;;5088218;28;20071;-82
2021/03/16 08:04:44;;;;;;;25.73;3.53;;;8.00;99.90;;;;;;5106138;28;20500;-83
2021/03/16 08:07:12;;;;;;;18.65;3.00;;;8.30;99.90;;;;;;5099896;28;20044;-83
2021/03/16 08:09:46;;;;;;;20.30;2.85;;;8.80;99.90;;;;;;5080858;28;20044;-83
2021/03/16 08:12:27;;;;;;;26.02;3.25;;;9.10;99.90;;;;;;5099895;28;20044;-82
2021/03/16 08:14:54;;;;;;;21.45;3.80;;;8.70;99.90;;;;;;5100871;28;20050;-82
2021/03/16 08:17:28;;;;;;;31.02;4.32;;;8.60;99.90;;;;;;5091867;28;20040;-82
2021/03/16 08:19:53;;;;;;;27.17;3.80;;;8.60;99.90;;;;;;5099798;28;20312;-83
2021/03/16 08:22:21;;;;;;;14.70;3.45;;;8.60;99.90;;;;;;5117531;27;20100;-81
2021/03/16 08:24:50;;;;;;;19.23;2.67;;;8.60;99.90;;;;;;5104730;27;20529;-82
2021/03/16 08:27:17;;;;;;;16.60;3.10;;;8.00;99.90;;;;;;5097342;27;20629;-80
2021/03/16 08:29:45;;;;;;;21.83;2.70;;;8.30;99.90;;;;;;5095667;28;20048;-80
2021/03/16 08:32:18;;;;;;;22.95;3.40;;;8.70;99.90;;;;;;5095263;28;20048;-80
2021/03/16 08:34:46;;;;;;;25.70;3.20;;;8.20;99.90;;;;;;5093328;28;20142;-83
2021/03/16 08:37:29;;;;;;;15.68;2.47;;;8.50;99.90;;;;;;5101434;28;20036;-83
2021/03/16 08:39:55;;;;;;;;;;;8.20;99.90;;;;;;5098924;28;20047;-82
2021/03/16 08:42:25;;;;;;;21.73;3.08;;;8.40;99.90;;;;;;5087354;28;19930;-83
2021/03/16 08:44:52;;;;;;;19.95;3.42;;;8.70;99.90;;;;;;5099654;28;20047;-83
2021/03/16 08:47:24;;;;;;;33.38;6.00;;;8.80;99.90;;;;;;5094683;28;20043;-84
2021/03/16 08:49:52;;;;;;;16.73;2.35;;;8.60;99.90;;;;;;5098870;28;20050;-84
2021/03/16 08:52:23;;;;;;;18.50;3.10;;;8.40;99.90;;;;;;5116699;28;20050;-85
2021/03/16 08:54:51;;;;;;;18.98;2.80;;;8.40;99.90;;;;;;5101285;28;20137;-83
2021/03/16 08:57:27;;;;;;;18.38;3.45;;;8.50;99.90;;;;;;5101907;28;20666;-83
2021/03/16 08:59:55;;;;;;;15.25;2.53;;;8.50;99.90;;;;;;5098632;28;20058;-84
2021/03/16 09:02:28;;;;;;;16.13;2.55;;;8.20;99.90;;;;;;5102004;28;20075;-85
2021/03/16 09:04:58;;;;;;;16.58;2.35;;;8.20;99.90;;;;;;5110589;27;20117;-84
2021/03/16 09:07:25;;;;;;;18.00;2.63;;;8.20;99.90;;;;;;5108151;27;20051;-83
2021/03/16 09:10:17;;;;;;;15.07;2.22;;;8.40;99.90;;;;;;5099439;28;20043;-83
2021/03/16 09:12:45;;;;;;;22.58;2.78;;;8.40;99.90;;;;;;5105162;28;20032;-83
2021/03/16 09:15:19;;;;;;;16.20;2.38;;;8.40;99.90;;;;;;5079677;28;20075;-84
2021/03/16 09:17:47;;;;;;;15.57;3.25;;;8.50;99.90;;;;;;5100607;28;20706;-83
2021/03/16 09:20:17;;;;;;;23.13;3.42;;;8.60;99.90;;;;;;5091323;28;20070;-84
2021/03/16 09:22:45;;;;;;;15.25;3.05;;;9.30;99.90;;;;;;5078913;28;20043;-83
2021/03/16 09:25:12;;;;;;;16.55;2.67;;;9.40;99.90;;;;;;5097160;27;20123;-81
2021/03/16 09:27:41;;;;;;;27.30;3.22;;;9.80;99.90;;;;;;5090346;28;20140;-83
2021/03/16 09:30:09;;;;;;;17.67;3.15;;;9.40;99.90;;;;;;5103829;28;20078;-83
2021/03/16 09:32:43;;;;;;;22.63;4.45;;;9.50;99.90;;;;;;5105136;28;20075;-83
2021/03/16 09:35:12;;;;;;;17.65;2.50;;;10.00;99.90;;;;;;5100089;28;20123;-82
2021/03/16 09:37:46;;;;;;;16.23;2.63;;;10.50;99.90;;;;;;5096772;28;20396;-83
2021/03/16 09:40:13;;;;;;;15.60;2.50;;;10.80;99.90;;;;;;5098002;28;20043;-84
2021/03/16 09:42:45;;;;;;;16.63;2.83;;;11.10;99.90;;;;;;5099793;28;20131;-83
2021/03/16 09:45:39;;;;;;;17.13;2.75;;;12.20;99.90;;;;;;5092391;28;20668;-81
2021/03/16 09:48:17;;;;;;;14.48;2.55;;;11.80;99.90;;;;;;5079973;28;20055;-83
2021/03/16 09:50:44;;;;;;;18.05;2.42;;;11.30;99.90;;;;;;5094650;28;20047;-83
2021/03/16 09:53:14;;;;;;;16.35;2.60;;;11.60;99.90;;;;;;5094271;28;20382;-84
2021/03/16 09:55:42;;;;;;;12.40;1.95;;;12.70;99.90;;;;;;5096588;28;20047;-83
2021/03/16 09:58:21;;;;;;;14.45;2.97;;;12.30;99.90;;;;;;5096229;28;20047;-85
2021/03/16 10:00:48;;;;;;;17.85;3.25;;;11.90;99.90;;;;;;5098940;28;20675;-84
2021/03/16 10:03:16;;;;;;;18.60;3.33;;;11.20;99.90;;;;;;5098897;28;20054;-83
2021/03/16 10:05:42;;;;;;;23.00;3.78;;;11.50;99.90;;;;;;5091427;28;20078;-82
2021/03/16 10:08:08;;;;;;;20.38;2.92;;;11.30;99.90;;;;;;5097680;28;20074;-84
2021/03/16 10:10:38;;;;;;;21.20;2.63;;;11.40;99.90;;;;;;5101786;28;20085;-82
2021/03/16 10:13:06;;;;;;;10.35;2.10;;;11.10;99.90;;;;;;5095992;28;20044;-85
2021/03/16 10:15:36;;;;;;;14.98;2.63;;;11.00;99.90;;;;;;5104441;28;20436;-83
2021/03/16 10:18:04;;;;;;;16.58;2.85;;;11.20;99.90;;;;;;5100676;28;20499;-84
2021/03/16 10:20:35;;;;;;;21.42;3.25;;;11.20;99.90;;;;;;5102117;28;20039;-83
2021/03/16 10:23:04;;;;;;;13.35;2.78;;;10.40;99.90;;;;;;5082684;28;20126;-84
2021/03/16 10:25:31;;;;;;;17.98;3.25;;;10.80;99.90;;;;;;5090089;28;20085;-83
2021/03/16 10:27:59;;;;;;;12.15;2.30;;;11.00;99.90;;;;;;5107950;27;20058;-84
2021/03/16 10:30:34;;;;;;;16.95;2.92;;;11.10;99.90;;;;;;5104406;28;20044;-86
2021/03/16 10:33:00;;;;;;;13.02;2.53;;;11.40;99.90;;;;;;5082214;27;20043;-87
2021/03/16 10:35:26;;;;;;;18.67;3.22;;;11.00;99.90;;;;;;5087904;27;20062;-86
2021/03/16 10:37:53;;;;;;;17.52;2.80;;;10.90;99.90;;;;;;5109479;27;20054;-85
2021/03/16 10:40:19;;;;;;;13.38;2.75;;;10.80;99.90;;;;;;5075598;28;20376;-86
2021/03/16 10:42:44;;;;;;;22.10;3.65;;;11.10;99.90;;;;;;5073538;28;20040;-86
2021/03/16 10:45:10;;;;;;;15.45;3.17;;;11.50;99.90;;;;;;5070877;28;20132;-86
2021/03/16 10:47:36;;;;;;;17.95;2.53;;;11.80;99.90;;;;;;5085777;28;20052;-87
2021/03/16 10:50:03;;;;;;;19.13;2.55;;;10.20;99.90;;;;;;5073428;28;20048;-87
2021/03/16 10:52:29;;;;;;;14.88;2.75;;;9.90;99.90;;;;;;5056501;28;20120;-87
2021/03/16 10:54:55;;;;;;;17.85;3.17;;;10.10;99.90;;;;;;5062407;28;20127;-86
2021/03/16 10:57:21;;;;;;;12.68;1.73;;;10.40;99.90;;;;;;5075928;28;20094;-85
2021/03/16 10:59:46;;;;;;;13.35;2.25;;;10.50;99.90;;;;;;5057219;28;20485;-86
2021/03/16 11:02:12;;;;;;;19.80;2.40;;;10.70;99.90;;;;;;5078478;28;20043;-83
2021/03/16 11:04:39;;;;;;;11.57;2.45;;;10.60;99.90;;;;;;5072922;28;20043;-85
2021/03/16 11:07:05;;;;;;;12.70;2.10;;;10.60;99.90;;;;;;5077409;28;20040;-86
2021/03/16 11:09:30;;;;;;;16.20;2.80;;;10.90;99.90;;;;;;5077933;28;20047;-85
2021/03/16 11:11:56;;;;;;;20.10;3.30;;;10.70;99.90;;;;;;5077519;28;20054;-85
2021/03/16 11:14:21;;;;;;;10.77;2.10;;;10.60;99.90;;;;;;5060066;28;20040;-87
2021/03/16 11:16:47;;;;;;;14.45;2.97;;;10.30;99.90;;;;;;5062590;28;20628;-87
2021/03/16 11:19:13;;;;;;;16.20;3.28;;;10.70;99.90;;;;;;5060163;28;20344;-87
2021/03/16 11:21:39;;;;;;;13.65;2.40;;;10.90;99.90;;;;;;5043330;28;20052;-87
2021/03/16 11:24:05;;;;;;;12.50;3.20;;;11.50;99.90;;;;;;5074179;28;20056;-87
2021/03/16 11:26:31;;;;;;;17.33;3.75;;;11.40;99.90;;;;;;5074413;28;20115;-83
2021/03/16 11:28:57;;;;;;;11.32;2.22;;;11.20;99.90;;;;;;5078746;28;20132;-86
2021/03/16 11:31:22;;;;;;;7.90;1.70;;;11.00;99.90;;;;;;5088641;28;20044;-85
2021/03/16 11:33:48;;;;;;;19.17;2.42;;;11.10;99.90;;;;;;5087399;28;20070;-84
2021/03/16 11:36:14;;;;;;;14.05;2.25;;;11.10;99.90;;;;;;5072819;28;20040;-86
2021/03/16 11:38:41;;;;;;;15.52;2.40;;;11.20;99.90;;;;;;5071132;28;20588;-84
2021/03/16 11:41:07;;;;;;;19.23;2.60;;;11.40;99.90;;;;;;5072607;28;20071;-85
2021/03/16 11:43:33;;;;;;;13.27;2.38;;;10.30;99.90;;;;;;5072251;28;20067;-85
2021/03/16 11:45:59;;;;;;;11.07;1.88;;;10.40;99.90;;;;;;5092762;28;20117;-87
2021/03/16 11:48:24;;;;;;;13.63;2.47;;;10.50;99.90;;;;;;5097219;28;20048;-86
2021/03/16 11:50:50;;;;;;;12.23;1.80;;;10.70;99.90;;;;;;5083636;28;20055;-84
2021/03/16 11:53:16;;;;;;;14.70;2.42;;;9.90;99.90;;;;;;5094706;28;20047;-84
2021/03/16 11:55:42;;;;;;;11.82;2.13;;;10.00;99.90;;;;;;5093186;28;20150;-87
2021/03/16 11:58:07;;;;;;;21.65;2.65;;;10.60;99.90;;;;;;5089546;28;20042;-87
2021/03/16 12:00:33;;;;;;;16.70;2.40;;;11.90;99.90;;;;;;5062769;28;20062;-83
2021/03/16 12:02:59;;;;;;;14.20;2.53;;;12.90;99.90;;;;;;5092652;28;20191;-82
2021/03/16 12:05:26;;;;;;;15.43;2.70;;;12.40;99.90;;;;;;5101142;28;20071;-94
2021/03/16 12:07:52;;;;;;;16.17;2.85;;;12.10;99.90;;;;;;5096885;28;20040;-93
2021/03/16 12:10:17;;;;;;;13.32;1.83;;;11.50;99.90;;;;;;5096449;28;20062;-94
2021/03/16 12:12:43;;;;;;;13.38;2.58;;;10.80;99.90;;;;;;5080005;28;20070;-93
2021/03/16 12:15:15;;;;;;;10.13;2.33;;;10.10;99.90;;;;;;5081122;28;20088;-94
2021/03/16 12:17:40;;;;;;;12.60;3.38;;;10.50;99.90;;;;;;5076958;28;20445;-92
2021/03/16 12:20:07;;;;;;;16.83;3.20;;;10.40;99.90;;;;;;5063157;28;20052;-92
2021/03/16 12:22:33;;;;;;;12.00;2.20;;;10.40;99.90;;;;;;5086072;28;20385;-93
2021/03/16 12:24:58;;;;;;;15.77;2.75;;;10.70;99.90;;;;;;5090512;28;20036;-92
2021/03/16 12:27:24;;;;;;;15.50;1.92;;;10.30;99.90;;;;;;5082074;28;20036;-92
2021/03/16 12:29:51;;;;;;;16.17;2.42;;;11.10;99.90;;;;;;5086246;28;20126;-93
2021/03/16 12:32:17;;;;;;;12.43;1.67;;;10.70;99.90;;;;;;5084260;28;20130;-93
2021/03/16 12:34:42;;;;;;;10.60;1.75;;;10.80;99.90;;;;;;5086889;28;20127;-89
2021/03/16 12:37:08;;;;;;;12.07;2.47;;;10.90;99.90;;;;;;5055872;28;20040;-94
2021/03/16 12:39:35;;;;;;;16.73;2.38;;;10.60;99.90;;;;;;5082949;28;20792;-92
2021/03/16 12:42:00;;;;;;;11.90;2.17;;;10.80;99.90;;;;;;5082000;28;20054;-92
2021/03/16 12:44:26;;;;;;;17.80;2.75;;;11.30;99.90;;;;;;5092731;28;20039;-93
2021/03/16 12:46:52;;;;;;;15.55;2.42;;;10.80;99.90;;;;;;5089503;28;20392;-93
2021/03/16 12:49:18;;;;;;;13.00;2.42;;;10.80;99.90;;;;;;5085768;28;20050;-93
2021/03/16 12:51:44;;;;;;;17.13;3.08;;;11.10;99.90;;;;;;5101118;28;20078;-93
2021/03/16 12:54:10;;;;;;;15.57;2.53;;;10.70;99.90;;;;;;5094522;28;20028;-93
2021/03/16 12:56:36;;;;;;;16.77;2.55;;;10.50;99.90;;;;;;5099126;28;20044;-93
2021/03/16 12:59:02;;;;;;;16.90;2.15;;;10.20;99.90;;;;;;5091476;28;20047;-94
2021/03/16 13:01:27;;;;;;;17.70;3.35;;;10.00;99.90;;;;;;5086282;28;20043;-92
2021/03/16 13:03:53;;;;;;;15.32;3.00;;;10.00;99.90;;;;;;5101804;28;20044;-92
2021/03/16 13:06:19;;;;;;;17.85;2.30;;;10.10;99.90;;;;;;5070172;28;20138;-93
2021/03/16 13:08:46;;;;;;;19.38;3.08;;;10.20;99.90;;;;;;5077502;28;20409;-94
2021/03/16 13:11:12;;;;;;;12.23;2.45;;;10.00;99.90;;;;;;5082923;28;20124;-92
2021/03/16 13:13:38;;;;;;;29.77;13.35;;;9.50;99.90;;;;;;5070832;28;20479;-92
2021/03/16 13:16:04;;;;;;;10.50;1.45;;;9.50;99.90;;;;;;5067093;28;20044;-93
2021/03/16 13:18:29;;;;;;;5.50;1.40;;;8.80;99.90;;;;;;5081147;28;20040;-92
2021/03/16 13:20:55;;;;;;;7.50;1.27;;;8.90;99.90;;;;;;5081326;28;20040;-92
2021/03/16 13:23:21;;;;;;;6.30;1.55;;;8.90;99.90;;;;;;5082203;28;20145;-93
2021/03/16 13:25:46;;;;;;;11.52;1.52;;;9.10;99.90;;;;;;5085739;28;20039;-93
2021/03/16 13:28:12;;;;;;;8.30;1.10;;;8.70;99.90;;;;;;5058700;28;20070;-92
2021/03/16 13:30:38;;;;;;;6.95;1.27;;;8.90;99.90;;;;;;5059691;28;20054;-93
2021/03/16 13:33:04;;;;;;;8.43;1.35;;;8.60;99.90;;;;;;5091761;28;20107;-92
2021/03/16 13:35:30;;;;;;;11.23;1.52;;;8.90;99.90;;;;;;5082033;28;20036;-92
2021/03/16 13:37:58;;;;;;;11.95;2.08;;;9.00;99.90;;;;;;5085491;28;20050;-93
2021/03/16 13:40:24;;;;;;;11.23;2.53;;;8.70;99.90;;;;;;5065100;28;20042;-93
2021/03/16 13:42:50;;;;;;;13.60;1.85;;;8.60;99.90;;;;;;5069462;28;20066;-93
2021/03/16 13:45:17;;;;;;;11.65;2.60;;;8.70;99.90;;;;;;5090248;28;20085;-92
2021/03/16 13:47:43;;;;;;;14.18;3.00;;;8.70;99.90;;;;;;5068073;28;20070;-93
2021/03/16 13:50:10;;;;;;;14.68;1.88;;;8.80;99.90;;;;;;5089878;28;20039;-92
2021/03/16 13:52:36;;;;;;;9.20;1.90;;;8.70;99.90;;;;;;5096645;27;20051;-90
2021/03/16 13:55:03;;;;;;;9.95;1.20;;;8.70;99.90;;;;;;5072689;27;20427;-92
2021/03/16 13:57:29;;;;;;;10.13;1.90;;;8.70;99.90;;;;;;5081265;28;20247;-93
2021/03/16 13:59:54;;;;;;;9.13;1.77;;;8.70;99.90;;;;;;5072390;28;20401;-92
2021/03/16 14:02:26;;;;;;;10.40;1.90;;;8.80;99.90;;;;;;5070535;28;20399;-91
2021/03/16 14:04:52;;;;;;;13.25;2.38;;;8.50;99.90;;;;;;5090119;28;20322;-92
2021/03/16 14:07:17;;;;;;;6.70;1.42;;;8.60;99.90;;;;;;5072113;28;20051;-91
2021/03/16 14:09:43;;;;;;;10.68;2.13;;;9.00;99.90;;;;;;5091533;28;20031;-92
2021/03/16 14:12:09;;;;;;;9.73;1.45;;;9.00;99.90;;;;;;5113161;28;20050;-93
2021/03/16 14:14:35;;;;;;;11.45;1.80;;;8.70;99.90;;;;;;5106125;28;20044;-92
2021/03/16 14:17:00;;;;;;;13.57;2.03;;;8.60;99.90;;;;;;5092172;28;20070;-93
2021/03/16 14:19:26;;;;;;;10.77;1.75;;;8.50;99.90;;;;;;5107895;28;20040;-92
2021/03/16 14:21:52;;;;;;;14.48;2.22;;;8.20;99.90;;;;;;5087803;28;20439;-91
2021/03/16 14:24:18;;;;;;;12.52;1.90;;;8.30;99.90;;;;;;5097280;28;20040;-92
2021/03/16 14:26:44;;;;;;;13.88;2.08;;;8.30;99.90;;;;;;5089867;28;20032;-93